sensor_id;sensor_type;location;lat;lon;timestamp;pressure;altitude;pressure_sealevel;temperature;humidity
49813;BME280;35706;52.100;5.056;2024-03-22T00:00:04;102297.22;;;11.37;100.00
49813;BME280;35706;52.100;5.056;2024-03-22T00:01:04;102291.53;;;11.31;100.00
49813;BME280;35706;52.100;5.056;2024-03-22T00:02:05;102299.44;;;11.31;100.00
49813;BME280;35706;52.100;5.056;2024-03-22T00:03:06;102293.84;;;11.35;100.00
49813;BME280;35706;52.100;5.056;2024-03-22T00:04:06;102298.59;;;11.30;100.00
49813;BME280;35706;52.100;5.056;2024-03-22T00:05:06;102286.28;;;11.31;100.00
49813;BME280;35706;52.100;5.056;2024-03-22T00:06:07;102282.81;;;11.30;100.00
49813;BME280;35706;52.100;5.056;2024-03-22T00:07:07;102283.97;;;11.26;100.00
49813;BME280;35706;52.100;5.056;2024-03-22T00:08:08;102274.25;;;11.27;100.00
49813;BME280;35706;52.100;5.056;2024-03-22T00:09:10;102288.06;;;11.30;100.00
49813;BME280;35706;52.100;5.056;2024-03-22T00:10:11;102289.50;;;11.34;100.00
49813;BME280;35706;52.100;5.056;2024-03-22T00:11:11;102291.63;;;11.29;100.00
49813;BME280;35706;52.100;5.056;2024-03-22T00:12:11;102291.13;;;11.37;100.00
49813;BME280;35706;52.100;5.056;2024-03-22T00:13:12;102285.00;;;11.36;100.00
49813;BME280;35706;52.100;5.056;2024-03-22T00:14:12;102275.84;;;11.29;100.00
49813;BME280;35706;52.100;5.056;2024-03-22T00:15:12;102279.94;;;11.33;100.00
49813;BME280;35706;52.100;5.056;2024-03-22T00:16:13;102273.53;;;11.37;100.00
49813;BME280;35706;52.100;5.056;2024-03-22T00:17:13;102268.03;;;11.40;100.00
49813;BME280;35706;52.100;5.056;2024-03-22T00:18:13;102269.50;;;11.32;100.00
49813;BME280;35706;52.100;5.056;2024-03-22T00:19:14;102262.34;;;11.34;100.00
49813;BME280;35706;52.100;5.056;2024-03-22T00:20:14;102268.69;;;11.31;100.00
49813;BME280;35706;52.100;5.056;2024-03-22T00:21:15;102255.00;;;11.26;100.00
49813;BME280;35706;52.100;5.056;2024-03-22T00:22:15;102263.31;;;11.33;100.00
49813;BME280;35706;52.100;5.056;2024-03-22T00:23:15;102262.44;;;11.32;100.00
49813;BME280;35706;52.100;5.056;2024-03-22T00:24:16;102252.44;;;11.50;100.00
49813;BME280;35706;52.100;5.056;2024-03-22T00:25:16;102250.03;;;11.34;100.00
49813;BME280;35706;52.100;5.056;2024-03-22T00:26:16;102245.63;;;11.35;100.00
49813;BME280;35706;52.100;5.056;2024-03-22T00:27:17;102251.81;;;11.34;100.00
49813;BME280;35706;52.100;5.056;2024-03-22T00:28:17;102249.00;;;11.37;100.00
49813;BME280;35706;52.100;5.056;2024-03-22T00:29:17;102243.59;;;11.38;100.00
49813;BME280;35706;52.100;5.056;2024-03-22T00:30:18;102238.66;;;11.34;100.00
49813;BME280;35706;52.100;5.056;2024-03-22T00:31:18;102237.00;;;11.33;100.00
49813;BME280;35706;52.100;5.056;2024-03-22T00:32:19;102247.41;;;11.34;100.00
49813;BME280;35706;52.100;5.056;2024-03-22T00:33:19;102236.88;;;11.34;100.00
49813;BME280;35706;52.100;5.056;2024-03-22T00:34:19;102233.19;;;11.37;100.00
49813;BME280;35706;52.100;5.056;2024-03-22T00:35:19;102225.59;;;11.32;100.00
49813;BME280;35706;52.100;5.056;2024-03-22T00:36:20;102225.59;;;11.32;100.00
49813;BME280;35706;52.100;5.056;2024-03-22T00:37:20;102221.94;;;11.35;100.00
49813;BME280;35706;52.100;5.056;2024-03-22T00:38:21;102213.16;;;11.34;100.00
49813;BME280;35706;52.100;5.056;2024-03-22T00:39:21;102212.97;;;11.37;100.00
49813;BME280;35706;52.100;5.056;2024-03-22T00:40:22;102203.19;;;11.39;100.00
49813;BME280;35706;52.100;5.056;2024-03-22T00:41:22;102194.53;;;11.37;100.00
49813;BME280;35706;52.100;5.056;2024-03-22T00:42:22;102200.97;;;11.33;100.00
49813;BME280;35706;52.100;5.056;2024-03-22T00:43:23;102209.19;;;11.29;100.00
49813;BME280;35706;52.100;5.056;2024-03-22T00:44:23;102197.84;;;11.28;100.00
49813;BME280;35706;52.100;5.056;2024-03-22T00:45:23;102205.19;;;11.36;100.00
49813;BME280;35706;52.100;5.056;2024-03-22T00:46:24;102194.31;;;11.40;100.00
49813;BME280;35706;52.100;5.056;2024-03-22T00:47:24;102188.13;;;11.41;100.00
49813;BME280;35706;52.100;5.056;2024-03-22T00:48:24;102183.72;;;11.29;100.00
49813;BME280;35706;52.100;5.056;2024-03-22T00:49:25;102177.94;;;11.24;100.00
49813;BME280;35706;52.100;5.056;2024-03-22T00:50:25;102181.31;;;11.26;100.00
49813;BME280;35706;52.100;5.056;2024-03-22T00:51:26;102184.56;;;11.17;100.00
49813;BME280;35706;52.100;5.056;2024-03-22T00:52:26;102190.03;;;11.27;100.00
49813;BME280;35706;52.100;5.056;2024-03-22T00:53:27;102188.66;;;11.21;100.00
49813;BME280;35706;52.100;5.056;2024-03-22T00:54:27;102188.47;;;11.24;100.00
49813;BME280;35706;52.100;5.056;2024-03-22T00:55:27;102191.72;;;11.15;100.00
49813;BME280;35706;52.100;5.056;2024-03-22T00:56:27;102193.75;;;11.11;100.00
49813;BME280;35706;52.100;5.056;2024-03-22T00:57:28;102187.31;;;11.15;100.00
49813;BME280;35706;52.100;5.056;2024-03-22T00:58:29;102202.16;;;11.16;100.00
49813;BME280;35706;52.100;5.056;2024-03-22T00:59:29;102199.63;;;11.15;100.00
49813;BME280;35706;52.100;5.056;2024-03-22T01:00:30;102197.13;;;11.13;100.00
49813;BME280;35706;52.100;5.056;2024-03-22T01:01:30;102185.41;;;11.05;100.00
49813;BME280;35706;52.100;5.056;2024-03-22T01:02:30;102194.03;;;11.07;100.00
49813;BME280;35706;52.100;5.056;2024-03-22T01:03:30;102192.47;;;11.04;100.00
49813;BME280;35706;52.100;5.056;2024-03-22T01:04:31;102181.63;;;11.09;100.00
49813;BME280;35706;52.100;5.056;2024-03-22T01:05:31;102198.28;;;11.09;100.00
49813;BME280;35706;52.100;5.056;2024-03-22T01:06:31;102185.47;;;11.41;100.00
49813;BME280;35706;52.100;5.056;2024-03-22T01:07:32;102183.00;;;11.64;100.00
49813;BME280;35706;52.100;5.056;2024-03-22T01:08:32;102171.28;;;11.31;100.00
49813;BME280;35706;52.100;5.056;2024-03-22T01:09:33;102171.63;;;11.14;100.00
49813;BME280;35706;52.100;5.056;2024-03-22T01:10:33;102184.13;;;11.23;100.00
49813;BME280;35706;52.100;5.056;2024-03-22T01:11:34;102168.25;;;11.12;100.00
49813;BME280;35706;52.100;5.056;2024-03-22T01:12:34;102179.22;;;11.06;100.00
49813;BME280;35706;52.100;5.056;2024-03-22T01:13:35;102168.88;;;11.03;100.00
49813;BME280;35706;52.100;5.056;2024-03-22T01:14:35;102171.31;;;11.06;100.00
49813;BME280;35706;52.100;5.056;2024-03-22T01:15:36;102166.38;;;11.01;100.00
49813;BME280;35706;52.100;5.056;2024-03-22T01:16:36;102168.06;;;11.02;100.00
49813;BME280;35706;52.100;5.056;2024-03-22T01:17:37;102174.16;;;11.03;100.00
49813;BME280;35706;52.100;5.056;2024-03-22T01:18:37;102172.56;;;11.13;100.00
49813;BME280;35706;52.100;5.056;2024-03-22T01:19:37;102171.53;;;11.03;100.00
49813;BME280;35706;52.100;5.056;2024-03-22T01:20:39;102165.31;;;11.04;100.00
49813;BME280;35706;52.100;5.056;2024-03-22T01:21:41;102166.06;;;11.06;100.00
49813;BME280;35706;52.100;5.056;2024-03-22T01:22:41;102172.47;;;11.02;100.00
49813;BME280;35706;52.100;5.056;2024-03-22T01:23:42;102174.06;;;11.04;100.00
49813;BME280;35706;52.100;5.056;2024-03-22T01:24:42;102169.84;;;11.02;100.00
49813;BME280;35706;52.100;5.056;2024-03-22T01:25:42;102167.22;;;11.02;100.00
49813;BME280;35706;52.100;5.056;2024-03-22T01:26:43;102157.44;;;11.04;100.00
49813;BME280;35706;52.100;5.056;2024-03-22T01:27:43;102160.06;;;11.04;100.00
49813;BME280;35706;52.100;5.056;2024-03-22T01:28:43;102163.63;;;11.03;100.00
49813;BME280;35706;52.100;5.056;2024-03-22T01:29:44;102157.44;;;11.04;100.00
49813;BME280;35706;52.100;5.056;2024-03-22T01:30:44;102159.97;;;11.05;100.00
49813;BME280;35706;52.100;5.056;2024-03-22T01:31:44;102163.75;;;11.01;100.00
49813;BME280;35706;52.100;5.056;2024-03-22T01:32:45;102157.63;;;11.00;100.00
49813;BME280;35706;52.100;5.056;2024-03-22T01:33:45;102154.06;;;11.02;100.00
49813;BME280;35706;52.100;5.056;2024-03-22T01:34:47;102152.38;;;11.00;100.00
49813;BME280;35706;52.100;5.056;2024-03-22T01:35:48;102155.97;;;10.99;100.00
49813;BME280;35706;52.100;5.056;2024-03-22T01:36:48;102165.84;;;10.96;100.00
49813;BME280;35706;52.100;5.056;2024-03-22T01:37:48;102144.81;;;10.96;100.00
49813;BME280;35706;52.100;5.056;2024-03-22T01:38:49;102147.44;;;10.96;100.00
49813;BME280;35706;52.100;5.056;2024-03-22T01:39:49;102143.63;;;11.00;100.00
49813;BME280;35706;52.100;5.056;2024-03-22T01:40:50;102147.44;;;10.96;100.00
49813;BME280;35706;52.100;5.056;2024-03-22T01:41:50;102146.91;;;10.91;100.00
49813;BME280;35706;52.100;5.056;2024-03-22T01:42:57;102140.09;;;10.88;100.00
49813;BME280;35706;52.100;5.056;2024-03-22T01:43:58;102143.75;;;10.86;100.00
49813;BME280;35706;52.100;5.056;2024-03-22T01:45:01;102149.56;;;10.91;100.00
49813;BME280;35706;52.100;5.056;2024-03-22T01:46:04;102145.97;;;10.92;100.00
49813;BME280;35706;52.100;5.056;2024-03-22T01:47:05;102149.88;;;10.86;100.00
49813;BME280;35706;52.100;5.056;2024-03-22T01:48:06;102144.38;;;10.89;100.00
49813;BME280;35706;52.100;5.056;2024-03-22T01:49:12;102147.13;;;10.88;100.00
49813;BME280;35706;52.100;5.056;2024-03-22T01:50:14;102147.56;;;10.82;100.00
49813;BME280;35706;52.100;5.056;2024-03-22T01:51:15;102142.19;;;10.83;100.00
49813;BME280;35706;52.100;5.056;2024-03-22T01:52:16;102141.44;;;10.81;100.00
49813;BME280;35706;52.100;5.056;2024-03-22T01:53:16;102130.19;;;10.79;100.00
49813;BME280;35706;52.100;5.056;2024-03-22T01:54:17;102138.94;;;10.79;100.00
49813;BME280;35706;52.100;5.056;2024-03-22T01:55:19;102147.13;;;10.75;100.00
49813;BME280;35706;52.100;5.056;2024-03-22T01:56:20;102145.44;;;10.74;100.00
49813;BME280;35706;52.100;5.056;2024-03-22T01:57:21;102148.28;;;10.71;100.00
49813;BME280;35706;52.100;5.056;2024-03-22T01:58:21;102147.34;;;10.72;100.00
49813;BME280;35706;52.100;5.056;2024-03-22T01:59:22;102146.69;;;10.68;100.00
49813;BME280;35706;52.100;5.056;2024-03-22T02:00:22;102145.97;;;10.66;100.00
49813;BME280;35706;52.100;5.056;2024-03-22T02:01:23;102145.88;;;10.68;100.00
49813;BME280;35706;52.100;5.056;2024-03-22T02:02:24;102149.66;;;10.64;100.00
49813;BME280;35706;52.100;5.056;2024-03-22T02:03:24;102163.94;;;10.59;100.00
49813;BME280;35706;52.100;5.056;2024-03-22T02:04:24;102158.91;;;10.56;100.00
49813;BME280;35706;52.100;5.056;2024-03-22T02:05:25;102153.44;;;10.59;100.00
49813;BME280;35706;52.100;5.056;2024-03-22T02:06:25;102157.94;;;10.57;100.00
49813;BME280;35706;52.100;5.056;2024-03-22T02:07:29;102154.28;;;10.60;100.00
49813;BME280;35706;52.100;5.056;2024-03-22T02:08:30;102168.28;;;10.61;100.00
49813;BME280;35706;52.100;5.056;2024-03-22T02:09:30;102153.53;;;10.58;100.00
49813;BME280;35706;52.100;5.056;2024-03-22T02:10:31;102166.66;;;10.45;100.00
49813;BME280;35706;52.100;5.056;2024-03-22T02:11:31;102162.06;;;10.49;100.00
49813;BME280;35706;52.100;5.056;2024-03-22T02:12:32;102156.16;;;10.45;100.00
49813;BME280;35706;52.100;5.056;2024-03-22T02:13:32;102150.69;;;10.48;100.00
49813;BME280;35706;52.100;5.056;2024-03-22T02:14:32;102150.16;;;10.43;100.00
49813;BME280;35706;52.100;5.056;2024-03-22T02:15:32;102157.09;;;10.44;100.00
49813;BME280;35706;52.100;5.056;2024-03-22T02:16:33;102152.03;;;10.41;100.00
49813;BME280;35706;52.100;5.056;2024-03-22T02:17:34;102148.38;;;10.44;100.00
49813;BME280;35706;52.100;5.056;2024-03-22T02:18:34;102162.88;;;10.36;100.00
49813;BME280;35706;52.100;5.056;2024-03-22T02:19:35;102150.69;;;10.35;100.00
49813;BME280;35706;52.100;5.056;2024-03-22T02:20:35;102151.63;;;10.34;100.00
49813;BME280;35706;52.100;5.056;2024-03-22T02:21:35;102154.16;;;10.36;100.00
49813;BME280;35706;52.100;5.056;2024-03-22T02:22:35;102159.09;;;10.41;100.00
49813;BME280;35706;52.100;5.056;2024-03-22T02:23:37;102157.59;;;10.36;100.00
49813;BME280;35706;52.100;5.056;2024-03-22T02:24:38;102160.97;;;10.38;100.00
49813;BME280;35706;52.100;5.056;2024-03-22T02:25:38;102157.25;;;10.28;100.00
49813;BME280;35706;52.100;5.056;2024-03-22T02:26:38;102147.59;;;10.29;100.00
49813;BME280;35706;52.100;5.056;2024-03-22T02:27:39;102144.97;;;10.29;100.00
49813;BME280;35706;52.100;5.056;2024-03-22T02:28:39;102147.41;;;10.32;100.00
49813;BME280;35706;52.100;5.056;2024-03-22T02:29:39;102145.44;;;10.35;100.00
49813;BME280;35706;52.100;5.056;2024-03-22T02:30:39;102138.84;;;10.28;100.00
49813;BME280;35706;52.100;5.056;2024-03-22T02:31:40;102139.06;;;10.25;100.00
49813;BME280;35706;52.100;5.056;2024-03-22T02:32:40;102140.34;;;10.32;100.00
49813;BME280;35706;52.100;5.056;2024-03-22T02:33:40;102134.44;;;10.29;100.00
49813;BME280;35706;52.100;5.056;2024-03-22T02:34:41;102123.94;;;10.29;100.00
49813;BME280;35706;52.100;5.056;2024-03-22T02:35:41;102133.59;;;10.28;100.00
49813;BME280;35706;52.100;5.056;2024-03-22T02:36:42;102129.38;;;10.26;100.00
49813;BME280;35706;52.100;5.056;2024-03-22T02:37:42;102126.38;;;10.32;100.00
49813;BME280;35706;52.100;5.056;2024-03-22T02:38:42;102120.56;;;10.27;100.00
49813;BME280;35706;52.100;5.056;2024-03-22T02:39:43;102124.72;;;10.31;100.00
49813;BME280;35706;52.100;5.056;2024-03-22T02:40:44;102128.28;;;10.30;100.00
49813;BME280;35706;52.100;5.056;2024-03-22T02:41:44;102125.19;;;10.23;100.00
49813;BME280;35706;52.100;5.056;2024-03-22T02:42:44;102113.63;;;10.26;100.00
49813;BME280;35706;52.100;5.056;2024-03-22T02:43:45;102128.28;;;10.30;100.00
49813;BME280;35706;52.100;5.056;2024-03-22T02:44:45;102117.63;;;10.18;100.00
49813;BME280;35706;52.100;5.056;2024-03-22T02:45:46;102112.78;;;10.25;100.00
49813;BME280;35706;52.100;5.056;2024-03-22T02:46:46;102097.84;;;10.26;100.00
49813;BME280;35706;52.100;5.056;2024-03-22T02:47:47;102099.75;;;10.24;100.00
49813;BME280;35706;52.100;5.056;2024-03-22T02:48:47;102112.66;;;10.14;100.00
49813;BME280;35706;52.100;5.056;2024-03-22T02:49:47;102098.56;;;10.15;100.00
49813;BME280;35706;52.100;5.056;2024-03-22T02:50:48;102096.69;;;10.17;100.00
49813;BME280;35706;52.100;5.056;2024-03-22T02:51:48;102092.16;;;10.19;100.00
49813;BME280;35706;52.100;5.056;2024-03-22T02:52:49;102087.13;;;10.16;100.00
49813;BME280;35706;52.100;5.056;2024-03-22T02:53:50;102086.59;;;10.24;100.00
49813;BME280;35706;52.100;5.056;2024-03-22T02:54:50;102086.47;;;10.39;100.00
49813;BME280;35706;52.100;5.056;2024-03-22T02:55:50;102076.00;;;10.25;100.00
49813;BME280;35706;52.100;5.056;2024-03-22T02:56:50;102074.97;;;10.41;100.00
49813;BME280;35706;52.100;5.056;2024-03-22T02:57:51;102066.69;;;10.34;100.00
49813;BME280;35706;52.100;5.056;2024-03-22T02:58:51;102068.53;;;10.19;100.00
49813;BME280;35706;52.100;5.056;2024-03-22T02:59:51;102061.69;;;10.16;100.00
49813;BME280;35706;52.100;5.056;2024-03-22T03:00:52;102057.50;;;10.27;100.00
49813;BME280;35706;52.100;5.056;2024-03-22T03:01:52;102059.09;;;10.29;100.00
49813;BME280;35706;52.100;5.056;2024-03-22T03:02:53;102056.03;;;10.23;100.00
49813;BME280;35706;52.100;5.056;2024-03-22T03:03:53;102051.19;;;10.16;100.00
49813;BME280;35706;52.100;5.056;2024-03-22T03:04:53;102048.66;;;10.15;100.00
49813;BME280;35706;52.100;5.056;2024-03-22T03:05:54;102050.34;;;10.16;100.00
49813;BME280;35706;52.100;5.056;2024-03-22T03:06:54;102052.34;;;10.12;100.00
49813;BME280;35706;52.100;5.056;2024-03-22T03:07:56;102049.16;;;10.07;100.00
49813;BME280;35706;52.100;5.056;2024-03-22T03:08:56;102057.59;;;10.12;100.00
49813;BME280;35706;52.100;5.056;2024-03-22T03:09:56;102056.22;;;10.07;100.00
49813;BME280;35706;52.100;5.056;2024-03-22T03:10:56;102056.03;;;10.10;100.00
49813;BME280;35706;52.100;5.056;2024-03-22T03:11:57;102047.50;;;10.06;100.00
49813;BME280;35706;52.100;5.056;2024-03-22T03:12:57;102057.78;;;10.09;100.00
49813;BME280;35706;52.100;5.056;2024-03-22T03:13:58;102045.09;;;10.16;100.00
49813;BME280;35706;52.100;5.056;2024-03-22T03:14:58;102037.31;;;10.14;100.00
49813;BME280;35706;52.100;5.056;2024-03-22T03:15:58;102048.66;;;10.15;100.00
49813;BME280;35706;52.100;5.056;2024-03-22T03:16:59;102043.16;;;10.05;100.00
49813;BME280;35706;52.100;5.056;2024-03-22T03:17:59;102043.72;;;10.10;100.00
49813;BME280;35706;52.100;5.056;2024-03-22T03:18:59;102039.19;;;10.12;100.00
49813;BME280;35706;52.100;5.056;2024-03-22T03:20:00;102034.88;;;10.11;100.00
49813;BME280;35706;52.100;5.056;2024-03-22T03:21:00;102035.00;;;10.23;100.00
49813;BME280;35706;52.100;5.056;2024-03-22T03:22:00;102033.72;;;10.15;100.00
49813;BME280;35706;52.100;5.056;2024-03-22T03:23:01;102018.81;;;10.16;100.00
49813;BME280;35706;52.100;5.056;2024-03-22T03:24:01;102011.56;;;10.07;100.00
49813;BME280;35706;52.100;5.056;2024-03-22T03:25:03;102014.28;;;10.05;100.00
49813;BME280;35706;52.100;5.056;2024-03-22T03:26:04;102017.63;;;10.07;100.00
49813;BME280;35706;52.100;5.056;2024-03-22T03:27:04;102010.81;;;10.05;100.00
49813;BME280;35706;52.100;5.056;2024-03-22T03:28:05;102021.41;;;10.03;100.00
49813;BME280;35706;52.100;5.056;2024-03-22T03:29:07;102022.28;;;10.04;100.00
49813;BME280;35706;52.100;5.056;2024-03-22T03:30:08;102006.53;;;10.04;100.00
49813;BME280;35706;52.100;5.056;2024-03-22T03:31:08;101998.84;;;10.13;100.00
49813;BME280;35706;52.100;5.056;2024-03-22T03:32:09;101996.53;;;10.09;100.00
49813;BME280;35706;52.100;5.056;2024-03-22T03:33:09;102006.19;;;10.08;100.00
49813;BME280;35706;52.100;5.056;2024-03-22T03:34:09;101985.91;;;9.97;100.00
49813;BME280;35706;52.100;5.056;2024-03-22T03:35:10;101999.97;;;9.96;100.00
49813;BME280;35706;52.100;5.056;2024-03-22T03:36:10;101990.03;;;10.02;100.00
49813;BME280;35706;52.100;5.056;2024-03-22T03:37:10;101980.75;;;10.09;100.00
49813;BME280;35706;52.100;5.056;2024-03-22T03:38:11;101974.59;;;9.97;100.00
49813;BME280;35706;52.100;5.056;2024-03-22T03:39:11;101980.97;;;9.93;100.00
49813;BME280;35706;52.100;5.056;2024-03-22T03:40:11;101992.84;;;9.98;100.00
49813;BME280;35706;52.100;5.056;2024-03-22T03:41:11;101986.53;;;10.01;100.00
49813;BME280;35706;52.100;5.056;2024-03-22T03:42:12;101987.59;;;9.98;100.00
49813;BME280;35706;52.100;5.056;2024-03-22T03:43:12;101989.16;;;10.01;100.00
49813;BME280;35706;52.100;5.056;2024-03-22T03:44:12;101985.91;;;9.97;100.00
49813;BME280;35706;52.100;5.056;2024-03-22T03:45:13;101994.84;;;9.95;100.00
49813;BME280;35706;52.100;5.056;2024-03-22T03:46:13;101989.19;;;10.14;100.00
49813;BME280;35706;52.100;5.056;2024-03-22T03:47:13;101984.97;;;10.11;100.00
49813;BME280;35706;52.100;5.056;2024-03-22T03:48:14;101980.25;;;10.04;100.00
49813;BME280;35706;52.100;5.056;2024-03-22T03:49:14;101988.56;;;10.10;100.00
49813;BME280;35706;52.100;5.056;2024-03-22T03:50:14;101984.88;;;10.00;100.00
49813;BME280;35706;52.100;5.056;2024-03-22T03:51:15;101980.44;;;10.01;100.00
49813;BME280;35706;52.100;5.056;2024-03-22T03:52:15;101986.00;;;9.96;100.00
49813;BME280;35706;52.100;5.056;2024-03-22T03:53:15;101984.34;;;9.95;100.00
49813;BME280;35706;52.100;5.056;2024-03-22T03:54:15;101991.38;;;9.94;100.00
49813;BME280;35706;52.100;5.056;2024-03-22T03:55:16;101987.16;;;9.92;100.00
49813;BME280;35706;52.100;5.056;2024-03-22T03:56:16;101975.28;;;9.86;100.00
49813;BME280;35706;52.100;5.056;2024-03-22T03:57:16;101988.44;;;9.99;100.00
49813;BME280;35706;52.100;5.056;2024-03-22T03:58:17;101980.03;;;9.94;100.00
49813;BME280;35706;52.100;5.056;2024-03-22T03:59:18;101995.59;;;9.97;100.00
49813;BME280;35706;52.100;5.056;2024-03-22T04:00:19;101977.22;;;9.97;100.00
49813;BME280;35706;52.100;5.056;2024-03-22T04:01:20;101978.78;;;9.99;100.00
49813;BME280;35706;52.100;5.056;2024-03-22T04:02:20;101978.88;;;9.98;100.00
49813;BME280;35706;52.100;5.056;2024-03-22T04:03:21;101974.88;;;9.92;100.00
49813;BME280;35706;52.100;5.056;2024-03-22T04:04:21;101967.84;;;9.93;100.00
49813;BME280;35706;52.100;5.056;2024-03-22T04:05:22;101964.81;;;9.99;100.00
49813;BME280;35706;52.100;5.056;2024-03-22T04:06:22;101967.53;;;10.10;100.00
49813;BME280;35706;52.100;5.056;2024-03-22T04:07:23;101978.66;;;10.01;100.00
49813;BME280;35706;52.100;5.056;2024-03-22T04:08:24;101959.97;;;9.93;100.00
49813;BME280;35706;52.100;5.056;2024-03-22T04:09:25;101959.25;;;9.91;100.00
49813;BME280;35706;52.100;5.056;2024-03-22T04:10:25;101950.94;;;9.97;100.00
49813;BME280;35706;52.100;5.056;2024-03-22T04:11:25;101969.63;;;9.92;100.00
49813;BME280;35706;52.100;5.056;2024-03-22T04:12:26;101961.75;;;10.05;100.00
49813;BME280;35706;52.100;5.056;2024-03-22T04:13:27;101956.59;;;10.04;100.00
49813;BME280;35706;52.100;5.056;2024-03-22T04:14:28;101958.59;;;10.00;100.00
49813;BME280;35706;52.100;5.056;2024-03-22T04:15:28;101955.88;;;10.02;100.00
49813;BME280;35706;52.100;5.056;2024-03-22T04:16:28;101951.13;;;10.07;100.00
49813;BME280;35706;52.100;5.056;2024-03-22T04:17:28;101960.50;;;9.98;100.00
49813;BME280;35706;52.100;5.056;2024-03-22T04:18:29;101959.09;;;9.92;100.00
49813;BME280;35706;52.100;5.056;2024-03-22T04:19:29;101958.09;;;9.95;100.00
49813;BME280;35706;52.100;5.056;2024-03-22T04:20:30;101958.38;;;10.03;100.00
49813;BME280;35706;52.100;5.056;2024-03-22T04:21:30;101956.19;;;9.97;100.00
49813;BME280;35706;52.100;5.056;2024-03-22T04:22:30;101956.72;;;10.02;100.00
49813;BME280;35706;52.100;5.056;2024-03-22T04:23:31;101971.63;;;9.89;100.00
49813;BME280;35706;52.100;5.056;2024-03-22T04:24:31;101950.19;;;9.95;100.00
49813;BME280;35706;52.100;5.056;2024-03-22T04:25:32;101954.72;;;9.93;100.00
49813;BME280;35706;52.100;5.056;2024-03-22T04:26:32;101953.56;;;9.97;100.00
49813;BME280;35706;52.100;5.056;2024-03-22T04:27:35;101960.50;;;9.98;100.00
49813;BME280;35706;52.100;5.056;2024-03-22T04:28:36;101950.72;;;10.00;100.00
49813;BME280;35706;52.100;5.056;2024-03-22T04:29:36;101957.84;;;9.98;100.00
49813;BME280;35706;52.100;5.056;2024-03-22T04:30:37;101950.94;;;9.97;100.00
49813;BME280;35706;52.100;5.056;2024-03-22T04:31:37;101945.88;;;9.94;100.00
49813;BME280;35706;52.100;5.056;2024-03-22T04:32:37;101957.13;;;9.96;100.00
49813;BME280;35706;52.100;5.056;2024-03-22T04:33:38;101954.91;;;10.03;100.00
49813;BME280;35706;52.100;5.056;2024-03-22T04:34:42;101957.75;;;9.99;100.00
49813;BME280;35706;52.100;5.056;2024-03-22T04:35:45;101954.31;;;9.99;100.00
49813;BME280;35706;52.100;5.056;2024-03-22T04:36:46;101950.94;;;9.97;100.00
49813;BME280;35706;52.100;5.056;2024-03-22T04:37:46;101947.78;;;10.05;100.00
49813;BME280;35706;52.100;5.056;2024-03-22T04:38:46;101957.44;;;10.04;100.00
49813;BME280;35706;52.100;5.056;2024-03-22T04:39:47;101949.97;;;9.98;100.00
49813;BME280;35706;52.100;5.056;2024-03-22T04:40:47;101945.56;;;9.98;100.00
49813;BME280;35706;52.100;5.056;2024-03-22T04:41:47;101954.50;;;9.96;100.00
49813;BME280;35706;52.100;5.056;2024-03-22T04:42:48;101958.09;;;9.95;100.00
49813;BME280;35706;52.100;5.056;2024-03-22T04:43:48;101950.31;;;10.06;100.00
49813;BME280;35706;52.100;5.056;2024-03-22T04:44:48;101955.97;;;10.00;100.00
49813;BME280;35706;52.100;5.056;2024-03-22T04:45:49;101947.78;;;9.92;100.00
49813;BME280;35706;52.100;5.056;2024-03-22T04:46:50;101949.25;;;9.96;100.00
49813;BME280;35706;52.100;5.056;2024-03-22T04:47:51;101966.91;;;9.94;100.00
49813;BME280;35706;52.100;5.056;2024-03-22T04:48:51;101953.03;;;9.92;100.00
49813;BME280;35706;52.100;5.056;2024-03-22T04:49:52;101951.22;;;9.92;100.00
49813;BME280;35706;52.100;5.056;2024-03-22T04:50:53;101953.03;;;9.92;100.00
49813;BME280;35706;52.100;5.056;2024-03-22T04:51:53;101959.97;;;9.93;100.00
49813;BME280;35706;52.100;5.056;2024-03-22T04:52:54;101959.97;;;9.93;100.00
49813;BME280;35706;52.100;5.056;2024-03-22T04:53:54;101960.59;;;9.96;100.00
49813;BME280;35706;52.100;5.056;2024-03-22T04:54:55;101955.56;;;9.93;100.00
49813;BME280;35706;52.100;5.056;2024-03-22T04:55:55;101950.31;;;9.93;100.00
49813;BME280;35706;52.100;5.056;2024-03-22T04:56:55;101961.63;;;9.94;100.00
49813;BME280;35706;52.100;5.056;2024-03-22T04:57:55;101954.19;;;9.88;100.00
49813;BME280;35706;52.100;5.056;2024-03-22T04:58:56;101968.13;;;9.88;100.00
49813;BME280;35706;52.100;5.056;2024-03-22T04:59:56;101969.00;;;9.89;100.00
49813;BME280;35706;52.100;5.056;2024-03-22T05:00:57;101954.06;;;9.89;100.00
49813;BME280;35706;52.100;5.056;2024-03-22T05:01:58;101953.25;;;9.89;100.00
49813;BME280;35706;52.100;5.056;2024-03-22T05:02:58;101955.88;;;9.89;100.00
49813;BME280;35706;52.100;5.056;2024-03-22T05:03:58;101956.59;;;9.91;100.00
49813;BME280;35706;52.100;5.056;2024-03-22T05:04:58;101953.34;;;9.87;100.00
49813;BME280;35706;52.100;5.056;2024-03-22T05:05:59;101955.88;;;9.89;100.00
49813;BME280;35706;52.100;5.056;2024-03-22T05:06:59;101964.50;;;9.91;100.00
49813;BME280;35706;52.100;5.056;2024-03-22T05:08:00;101952.69;;;9.84;100.00
49813;BME280;35706;52.100;5.056;2024-03-22T05:09:00;101952.38;;;9.88;100.00
49813;BME280;35706;52.100;5.056;2024-03-22T05:10:02;101949.66;;;9.90;100.00
49813;BME280;35706;52.100;5.056;2024-03-22T05:11:03;101951.03;;;9.83;100.00
49813;BME280;35706;52.100;5.056;2024-03-22T05:12:04;101948.19;;;9.86;100.00
49813;BME280;35706;52.100;5.056;2024-03-22T05:13:04;101946.53;;;9.85;100.00